Impacts TAF Board
For situational awareness. Not to be used for flight planning purposes.
IDs:

KCVG - Cincinnati Intl, KY, US

Issued at 1500 UTC 03 Jun 2020
Updated at 1658 UTC 03 Jun 2020
Potential Impact None Slight Moderate High
Time<<04/05Z 04/06Z 04/07Z 04/08Z 04/09Z 04/10Z 04/11Z 04/12Z 04/13Z 04/14Z 04/15Z 04/16Z 04/17Z>>
Type PRVL PRVL PRVL PRVL PRVL PRVL PRVL PRVL PRVL PRVL PRVL PRVL PRVL
VIS >6 >6 >6 >6 >6 >6 >6 >6 >6 >6 >6 >6 >6
CIG 40 40 40 40 40 40 40 40 40 40 40 40 40
Cover BKN BKN BKN BKN BKN BKN BKN BKN BKN BKN BKN BKN BKN
FltCat VFR VFR VFR VFR VFR VFR VFR VFR VFR VFR VFR VFR VFR
WX VCSH VCSH VCSH VCSH VCSH VCSH VCSH VCSH VCSH VCSH VCSH VCSH VCSH
WDir 230 230 230 230 230 230 230 230 230 230 230 230 230
WSpd 7 7 7 7 7 7 7 7 7 7 7 7 7
WGst -- -- -- -- -- -- -- -- -- -- -- -- --
Raw TAF
KCVG 031500Z 0315/0418 24012G20KT P6SM FEW035 SCT200
  FM032300 24010KT P6SM SCT040 BKN150
  FM040000 23007KT P6SM VCSH BKN040


METAR Board
Radar Display
Forecast Discussion
For situational awareness. Not to be used for flight planning purposes.